createdAt,value
2018-06-03T00:01:17.931Z,22.10
2018-06-03T00:02:55.142Z,22.10
2018-06-03T00:04:31.642Z,22.10
2018-06-03T00:06:08.373Z,22.20
2018-06-03T00:07:44.286Z,22.30
2018-06-03T00:09:20.258Z,22.40
2018-06-03T00:10:56.692Z,22.40
2018-06-03T00:12:33.575Z,22.30
2018-06-03T00:14:10.027Z,22.40
2018-06-03T00:15:46.309Z,22.30
2018-06-03T00:17:22.773Z,22.40
2018-06-03T00:18:59.726Z,22.40
2018-06-03T00:20:52.133Z,22.30
2018-06-03T00:22:32.912Z,22.30
2018-06-03T00:24:10.282Z,22.00
2018-06-03T00:25:46.629Z,21.40
2018-06-03T00:27:23.035Z,20.90
2018-06-03T00:28:59.343Z,20.70
2018-06-03T00:30:35.592Z,20.70
2018-06-03T00:32:13.121Z,20.80
2018-06-03T00:33:49.381Z,20.90
2018-06-03T00:35:26.200Z,21.00
2018-06-03T00:37:03.225Z,21.00
2018-06-03T00:38:39.561Z,21.30
2018-06-03T00:40:15.823Z,21.50
2018-06-03T00:41:52.743Z,21.40
2018-06-03T00:43:29.078Z,21.50
2018-06-03T00:45:05.493Z,21.40
2018-06-03T00:48:18.134Z,21.50
2018-06-03T00:49:55.468Z,21.60
2018-06-03T00:53:08.494Z,21.60
2018-06-03T00:54:45.054Z,21.80
2018-06-03T00:56:37.782Z,22.00
2018-06-03T00:59:50.898Z,22.20
2018-06-03T01:01:27.322Z,22.20
2018-06-03T01:03:04.339Z,22.10
2018-06-03T01:04:40.681Z,22.10
2018-06-03T01:06:17.679Z,22.00
2018-06-03T01:07:54.030Z,21.90
2018-06-03T01:09:30.233Z,21.90
2018-06-03T01:11:07.273Z,21.70
2018-06-03T01:12:44.278Z,21.70
2018-06-03T01:14:20.651Z,21.70
2018-06-03T01:15:57.261Z,21.80
2018-06-03T01:17:33.538Z,21.90
2018-06-03T01:19:10.426Z,21.90
2018-06-03T01:20:47.184Z,21.90
2018-06-03T01:22:23.557Z,21.80
2018-06-03T01:23:59.967Z,21.80
2018-06-03T01:25:36.749Z,21.80
2018-06-03T01:27:13.401Z,22.00
2018-06-03T01:28:50.657Z,22.00
2018-06-03T01:30:28.797Z,22.00
2018-06-03T01:32:06.458Z,22.00
2018-06-03T01:33:42.775Z,21.70
2018-06-03T01:35:19.004Z,21.50
2018-06-03T01:36:55.523Z,21.40
2018-06-03T01:38:32.453Z,21.20
2018-06-03T01:40:09.077Z,21.10
2018-06-03T01:41:45.652Z,21.00
2018-06-03T01:43:22.148Z,20.90
2018-06-03T01:44:58.719Z,20.90
2018-06-03T01:46:35.455Z,20.80
2018-06-03T01:48:11.723Z,20.90
2018-06-03T01:49:48.093Z,21.10
2018-06-03T01:51:25.935Z,21.40
2018-06-03T01:53:02.263Z,21.70
2018-06-03T01:54:38.575Z,21.80
2018-06-03T01:56:14.860Z,21.80
2018-06-03T01:57:51.593Z,22.00
2018-06-03T01:59:27.877Z,21.40
2018-06-03T02:02:43.082Z,21.10
2018-06-03T02:04:19.992Z,21.00
2018-06-03T02:05:56.934Z,21.20
2018-06-03T02:07:33.551Z,20.80
2018-06-03T02:09:10.165Z,20.50
2018-06-03T02:10:47.228Z,20.70
2018-06-03T02:12:23.897Z,21.00
2018-06-03T02:14:01.183Z,21.00
2018-06-03T02:15:37.894Z,21.00
2018-06-03T02:17:15.092Z,21.00
2018-06-03T02:18:51.799Z,20.90
2018-06-03T02:20:28.140Z,20.90
2018-06-03T02:22:05.162Z,20.90
2018-06-03T02:23:41.773Z,20.90
2018-06-03T02:25:18.162Z,20.80
2018-06-03T02:26:54.478Z,20.90
2018-06-03T02:28:31.185Z,21.10
2018-06-03T02:30:08.832Z,21.20
2018-06-03T02:31:45.256Z,21.20
2018-06-03T02:33:21.627Z,21.10
2018-06-03T02:34:58.044Z,20.90
2018-06-03T02:38:12.651Z,20.60
2018-06-03T02:39:48.955Z,20.30
2018-06-03T02:41:25.311Z,20.00
2018-06-03T02:43:02.886Z,20.00
2018-06-03T02:44:39.241Z,20.00
2018-06-03T02:46:16.885Z,20.20
2018-06-03T02:47:53.550Z,20.40
2018-06-03T02:49:30.131Z,20.40
2018-06-03T02:51:07.284Z,20.50
2018-06-03T02:52:43.540Z,20.60
2018-06-03T02:54:19.852Z,20.80
2018-06-03T02:55:56.498Z,20.90
2018-06-03T02:57:32.762Z,21.00
2018-06-03T03:00:49.704Z,21.10
2018-06-03T03:02:26.061Z,21.00
2018-06-03T03:04:02.432Z,21.00
2018-06-03T03:05:38.789Z,20.90
2018-06-03T03:07:15.828Z,20.80
2018-06-03T03:08:52.195Z,20.70
2018-06-03T03:10:28.585Z,20.70
2018-06-03T03:13:42.464Z,20.40
2018-06-03T03:15:18.978Z,20.50
2018-06-03T03:16:56.048Z,20.80
2018-06-03T03:18:32.839Z,21.00
2018-06-03T03:20:09.673Z,21.00
2018-06-03T03:21:46.217Z,20.90
2018-06-03T03:23:22.623Z,20.70
2018-06-03T03:24:59.422Z,20.60
2018-06-03T03:26:36.710Z,20.40
2018-06-03T03:28:13.362Z,20.40
2018-06-03T03:29:50.002Z,20.20
2018-06-03T03:31:26.453Z,20.00
2018-06-03T03:33:03.315Z,19.90
2018-06-03T03:34:39.682Z,19.70
2018-06-03T03:36:16.367Z,19.40
2018-06-03T03:37:53.311Z,19.20
2018-06-03T03:39:30.580Z,19.30
2018-06-03T03:41:09.087Z,19.60
2018-06-03T03:42:45.494Z,19.80
2018-06-03T03:44:21.828Z,19.80
2018-06-03T03:45:59.142Z,19.70
2018-06-03T03:47:35.387Z,19.50
2018-06-03T03:49:11.925Z,19.30
2018-06-03T03:50:48.655Z,19.30
2018-06-03T03:52:25.346Z,19.60
2018-06-03T03:54:02.050Z,19.90
2018-06-03T03:55:38.397Z,20.20
2018-06-03T03:57:15.663Z,20.30
2018-06-03T03:58:52.322Z,20.20
2018-06-03T04:00:28.906Z,19.90
2018-06-03T04:02:05.671Z,19.80
2018-06-03T04:03:42.159Z,19.60
2018-06-03T04:05:18.958Z,19.50
2018-06-03T04:06:55.391Z,19.30
2018-06-03T04:08:36.894Z,19.40
2018-06-03T04:10:13.667Z,19.60
2018-06-03T04:11:50.738Z,19.40
2018-06-03T04:13:27.224Z,19.20
2018-06-03T04:15:04.802Z,19.10
2018-06-03T04:16:41.524Z,18.90
2018-06-03T04:18:18.202Z,18.80
2018-06-03T04:19:54.599Z,18.70
2018-06-03T04:21:31.277Z,18.60
2018-06-03T04:23:08.073Z,18.60
2018-06-03T04:24:44.904Z,18.70
2018-06-03T04:26:21.604Z,18.80
2018-06-03T04:27:57.944Z,19.00
2018-06-03T04:29:34.277Z,19.50
2018-06-03T04:31:11.234Z,20.10
2018-06-03T04:32:47.613Z,20.40
2018-06-03T04:34:24.043Z,20.40
2018-06-03T04:36:00.521Z,20.20
2018-06-03T04:37:37.378Z,20.10
2018-06-03T04:39:14.679Z,20.40
2018-06-03T04:40:51.038Z,20.50
2018-06-03T04:42:27.319Z,20.70
2018-06-03T04:44:04.443Z,21.00
2018-06-03T04:45:41.364Z,21.10
2018-06-03T04:47:18.905Z,21.00
2018-06-03T04:48:54.634Z,20.90
2018-06-03T04:50:30.761Z,20.90
2018-06-03T04:52:07.288Z,20.80
2018-06-03T04:53:44.022Z,20.90
2018-06-03T04:55:20.368Z,21.00
2018-06-03T04:56:57.111Z,21.10
2018-06-03T04:58:33.503Z,21.20
2018-06-03T05:00:10.326Z,21.20
2018-06-03T05:01:47.036Z,21.30
2018-06-03T05:03:23.907Z,21.40
2018-06-03T05:05:00.244Z,21.40
2018-06-03T05:06:36.624Z,21.10
2018-06-03T05:08:13.469Z,20.80
2018-06-03T05:09:50.191Z,20.50
2018-06-03T05:11:26.609Z,20.30
2018-06-03T05:13:03.000Z,20.30
2018-06-03T05:14:39.789Z,20.30
2018-06-03T05:16:16.952Z,20.20
2018-06-03T05:17:53.617Z,20.20
2018-06-03T05:19:30.413Z,20.10
2018-06-03T05:21:07.683Z,20.00
2018-06-03T05:22:44.405Z,19.80
2018-06-03T05:25:57.140Z,19.80
2018-06-03T05:27:33.523Z,19.90
2018-06-03T05:29:10.271Z,20.10
2018-06-03T05:30:46.859Z,20.30
2018-06-03T05:32:23.659Z,20.40
2018-06-03T05:34:00.006Z,20.30
2018-06-03T05:35:36.914Z,20.40
2018-06-03T05:37:13.262Z,20.60
2018-06-03T05:38:49.584Z,20.50
2018-06-03T05:40:26.217Z,20.60
2018-06-03T05:42:02.890Z,20.70
2018-06-03T05:43:40.028Z,20.70
2018-06-03T05:45:17.687Z,20.60
2018-06-03T05:46:54.879Z,20.70
2018-06-03T05:48:34.072Z,20.70
2018-06-03T05:50:10.440Z,20.80
2018-06-03T05:51:46.796Z,21.00
2018-06-03T05:53:23.165Z,21.20
2018-06-03T05:55:00.621Z,21.30
2018-06-03T05:56:36.982Z,21.50
2018-06-03T05:58:13.253Z,21.60
2018-06-03T05:59:49.741Z,21.60
2018-06-03T06:03:02.642Z,21.70
2018-06-03T06:04:39.571Z,21.30
2018-06-03T06:06:16.121Z,21.10
2018-06-03T06:07:52.982Z,21.10
2018-06-03T06:09:29.744Z,21.40
2018-06-03T06:11:06.747Z,22.10
2018-06-03T06:12:43.054Z,22.30
2018-06-03T06:14:20.043Z,22.90
2018-06-03T06:15:56.745Z,23.30
2018-06-03T06:17:33.081Z,23.30
2018-06-03T06:20:46.249Z,22.30
2018-06-03T06:22:23.372Z,21.90
2018-06-03T06:23:59.850Z,21.70
2018-06-03T06:25:36.215Z,21.70
2018-06-03T06:27:13.065Z,21.70
2018-06-03T06:28:49.573Z,21.40
2018-06-03T06:32:02.113Z,22.00
2018-06-03T06:33:39.448Z,22.70
2018-06-03T06:35:15.927Z,23.10
2018-06-03T06:36:52.381Z,23.20
2018-06-03T06:38:30.390Z,22.70
2018-06-03T06:40:08.364Z,22.80
2018-06-03T06:41:45.169Z,22.90
2018-06-03T06:43:21.837Z,22.80
2018-06-03T06:44:58.255Z,22.70
2018-06-03T06:46:34.780Z,22.70
2018-06-03T06:48:11.130Z,22.90
2018-06-03T06:49:47.554Z,23.50
2018-06-03T06:51:24.123Z,23.90
2018-06-03T06:53:00.904Z,24.00
2018-06-03T06:54:37.272Z,24.10
2018-06-03T06:56:13.627Z,24.10
2018-06-03T06:57:50.080Z,24.30
2018-06-03T06:59:28.584Z,24.30
2018-06-03T07:01:05.425Z,24.40
2018-06-03T07:02:43.103Z,24.50
2018-06-03T07:04:19.774Z,24.60
2018-06-03T07:05:56.833Z,24.50
2018-06-03T07:07:34.680Z,24.70
2018-06-03T07:09:13.731Z,24.80
2018-06-03T07:10:50.111Z,24.80
2018-06-03T07:12:27.797Z,24.70
2018-06-03T07:14:04.175Z,24.70
2018-06-03T07:15:41.733Z,24.60
2018-06-03T07:17:18.972Z,24.60
2018-06-03T07:18:55.290Z,24.50
2018-06-03T07:20:32.034Z,24.60
2018-06-03T07:22:08.708Z,24.60
2018-06-03T07:23:45.577Z,24.50
2018-06-03T07:25:22.213Z,24.40
2018-06-03T07:26:58.852Z,24.40
2018-06-03T07:28:35.680Z,23.70
2018-06-03T07:31:50.207Z,23.70
2018-06-03T07:33:27.503Z,23.80
2018-06-03T07:35:07.780Z,23.90
2018-06-03T07:36:45.507Z,24.10
2018-06-03T07:38:22.276Z,24.30
2018-06-03T07:39:59.135Z,24.40
2018-06-03T07:41:37.003Z,24.30
2018-06-03T07:43:13.429Z,24.30
2018-06-03T07:44:49.987Z,23.30
2018-06-03T07:46:27.517Z,22.90
2018-06-03T07:48:08.020Z,22.80
2018-06-03T07:49:45.697Z,23.40
2018-06-03T07:51:22.278Z,23.70
2018-06-03T07:52:59.072Z,23.60
2018-06-03T07:54:35.871Z,24.00
2018-06-03T07:56:12.163Z,24.50
2018-06-03T07:57:48.469Z,24.80
2018-06-03T07:59:24.909Z,25.00
2018-06-03T08:01:02.379Z,25.20
2018-06-03T08:02:38.628Z,24.90
2018-06-03T08:04:14.970Z,25.30
2018-06-03T08:05:51.306Z,25.70
2018-06-03T08:07:28.760Z,26.00
2018-06-03T08:09:06.727Z,26.30
2018-06-03T08:10:46.741Z,25.30
2018-06-03T08:12:23.761Z,25.50
2018-06-03T08:14:00.698Z,26.00
2018-06-03T08:15:38.048Z,26.00
2018-06-03T08:17:14.516Z,26.10
2018-06-03T08:18:51.132Z,26.00
2018-06-03T08:20:28.486Z,25.50
2018-06-03T08:22:05.331Z,25.60
2018-06-03T08:23:43.292Z,25.70
2018-06-03T08:25:19.761Z,25.50
2018-06-03T08:26:56.669Z,25.40
2018-06-03T08:28:33.452Z,25.10
2018-06-03T08:30:10.136Z,25.00
2018-06-03T08:31:48.948Z,24.70
2018-06-03T08:33:25.698Z,24.60
2018-06-03T08:35:09.481Z,24.60
2018-06-03T08:36:46.666Z,24.60
2018-06-03T08:38:23.213Z,24.60
2018-06-03T08:40:00.125Z,24.60
2018-06-03T08:41:36.803Z,24.50
2018-06-03T08:43:13.151Z,24.40
2018-06-03T08:44:49.516Z,24.40
2018-06-03T08:46:26.846Z,24.30
2018-06-03T08:48:03.225Z,24.20
2018-06-03T08:49:39.654Z,24.30
2018-06-03T08:51:16.193Z,24.40
2018-06-03T08:52:52.645Z,24.50
2018-06-03T08:54:29.018Z,24.60
2018-06-03T08:56:05.385Z,24.60
2018-06-03T08:57:41.683Z,24.60
2018-06-03T08:59:18.421Z,24.50
2018-06-03T09:00:55.205Z,24.40
2018-06-03T09:02:31.714Z,24.40
2018-06-03T09:04:08.144Z,24.50
2018-06-03T09:05:45.059Z,24.40
2018-06-03T09:07:24.719Z,24.30
2018-06-03T09:09:01.188Z,24.20
2018-06-03T09:10:37.458Z,24.10
2018-06-03T09:12:14.183Z,24.10
2018-06-03T09:13:50.530Z,24.10
2018-06-03T09:18:42.895Z,23.90
2018-06-03T09:20:19.443Z,23.80
2018-06-03T09:21:55.849Z,23.60
2018-06-03T09:26:50.736Z,23.70
2018-06-03T09:28:27.397Z,23.90
2018-06-03T09:30:05.555Z,24.00
2018-06-03T09:31:42.379Z,24.10
2018-06-03T09:33:19.074Z,24.10
2018-06-03T09:34:56.141Z,24.10
2018-06-03T09:36:33.012Z,24.10
2018-06-03T09:38:09.428Z,24.10
2018-06-03T09:39:45.822Z,24.10
2018-06-03T09:41:22.599Z,23.80
2018-06-03T09:42:59.479Z,23.60
2018-06-03T09:44:35.998Z,23.80
2018-06-03T09:46:12.504Z,24.00
2018-06-03T09:47:48.886Z,24.20
2018-06-03T09:49:25.423Z,24.20
2018-06-03T09:51:01.873Z,24.20
2018-06-03T09:52:38.796Z,24.30
2018-06-03T09:54:15.226Z,24.40
2018-06-03T09:55:51.944Z,24.40
2018-06-03T09:57:28.860Z,24.60
2018-06-03T09:59:08.339Z,24.70
2018-06-03T10:00:44.984Z,24.40
2018-06-03T10:02:22.259Z,24.50
2018-06-03T10:03:58.684Z,24.20
2018-06-03T10:07:24.078Z,24.40
2018-06-03T10:09:01.904Z,24.90
2018-06-03T10:12:15.373Z,25.00
2018-06-03T10:13:51.705Z,25.00
2018-06-03T10:15:28.530Z,25.00
2018-06-03T10:17:04.966Z,24.90
2018-06-03T10:18:43.178Z,25.10
2018-06-03T10:20:19.596Z,25.30
2018-06-03T10:21:56.447Z,25.20
2018-06-03T10:23:32.969Z,25.30
2018-06-03T10:25:09.996Z,25.50
2018-06-03T10:28:22.864Z,25.10
2018-06-03T10:31:35.049Z,25.80
2018-06-03T10:33:11.380Z,26.20
2018-06-03T10:36:24.921Z,26.00
2018-06-03T10:39:38.193Z,25.90
2018-06-03T10:41:18.352Z,26.40
2018-06-03T10:42:54.815Z,26.60
2018-06-03T10:44:31.341Z,26.00
2018-06-03T10:47:44.069Z,24.70
2018-06-03T10:49:20.812Z,24.50
2018-06-03T10:50:57.250Z,24.50
2018-06-03T10:54:10.028Z,24.90
2018-06-03T10:55:46.465Z,25.40
2018-06-03T10:58:58.987Z,26.00
2018-06-03T11:00:36.495Z,26.00
2018-06-03T11:02:13.013Z,26.10
2018-06-03T11:03:49.446Z,26.00
2018-06-03T11:05:26.425Z,25.80
2018-06-03T11:07:03.336Z,25.80
2018-06-03T11:08:41.219Z,25.70
2018-06-03T11:10:19.441Z,25.30
2018-06-03T11:13:32.331Z,25.60
2018-06-03T11:15:08.965Z,25.30
2018-06-03T11:16:45.481Z,25.10
2018-06-03T11:18:22.049Z,25.10
2018-06-03T11:19:58.781Z,25.10
2018-06-03T11:21:36.682Z,25.00
2018-06-03T11:23:17.032Z,25.10
2018-06-03T11:24:53.474Z,25.30
2018-06-03T11:26:29.900Z,25.50
2018-06-03T11:28:06.323Z,25.80
2018-06-03T11:31:32.795Z,26.00
2018-06-03T11:33:09.164Z,26.00
2018-06-03T11:34:45.575Z,25.90
2018-06-03T11:36:22.118Z,25.80
2018-06-03T11:37:58.458Z,25.50
2018-06-03T11:39:35.821Z,25.80
2018-06-03T11:42:48.867Z,26.00
2018-06-03T11:44:25.410Z,26.20
2018-06-03T11:46:01.910Z,26.20
2018-06-03T11:47:40.538Z,26.60
2018-06-03T11:49:17.375Z,26.80
2018-06-03T11:50:53.817Z,26.40
2018-06-03T11:52:30.302Z,26.30
2018-06-03T11:54:06.654Z,26.80
2018-06-03T11:55:43.645Z,26.90
2018-06-03T11:57:20.133Z,26.80
2018-06-03T11:59:06.475Z,26.70
2018-06-03T12:00:43.197Z,26.50
2018-06-03T12:02:20.425Z,26.20
2018-06-03T12:05:32.724Z,26.00
2018-06-03T12:07:09.682Z,26.00
2018-06-03T12:08:46.564Z,25.90
2018-06-03T12:10:23.300Z,26.00
2018-06-03T12:11:59.710Z,26.00
2018-06-03T12:13:36.082Z,26.10
2018-06-03T12:15:14.097Z,26.20
2018-06-03T12:18:26.500Z,26.40
2018-06-03T12:20:02.994Z,26.40
2018-06-03T12:21:40.411Z,26.50
2018-06-03T12:23:16.815Z,26.30
2018-06-03T12:24:53.183Z,26.00
2018-06-03T12:26:29.572Z,26.00
2018-06-03T12:28:08.024Z,26.20
2018-06-03T12:29:44.461Z,26.20
2018-06-03T12:31:23.871Z,26.00
2018-06-03T12:33:00.723Z,25.90
2018-06-03T12:36:14.643Z,26.10
2018-06-03T12:38:23.583Z,26.10
2018-06-03T12:40:00.330Z,26.10
2018-06-03T12:41:37.646Z,26.00
2018-06-03T12:43:14.034Z,25.80
2018-06-03T12:44:50.913Z,25.60
2018-06-03T12:46:27.905Z,25.60
2018-06-03T12:48:04.810Z,25.80
2018-06-03T12:49:44.030Z,26.10
2018-06-03T12:51:20.853Z,26.20
2018-06-03T12:52:58.098Z,25.90
2018-06-03T12:54:34.814Z,25.80
2018-06-03T12:56:11.279Z,25.70
2018-06-03T12:57:47.655Z,25.80
2018-06-03T12:59:24.828Z,25.40
2018-06-03T13:02:37.960Z,25.00
2018-06-03T13:04:14.490Z,25.50
2018-06-03T13:05:50.924Z,25.30
2018-06-03T13:07:28.888Z,25.30
2018-06-03T13:09:07.809Z,25.80
2018-06-03T13:10:55.173Z,26.00
2018-06-03T13:12:35.583Z,26.10
2018-06-03T13:14:12.831Z,26.00
2018-06-03T13:15:49.507Z,25.70
2018-06-03T13:17:26.448Z,25.70
2018-06-03T13:19:05.058Z,26.00
2018-06-03T13:20:42.973Z,25.40
2018-06-03T13:22:19.398Z,25.80
2018-06-03T13:23:57.320Z,26.10
2018-06-03T13:25:35.413Z,26.40
2018-06-03T13:27:11.920Z,26.50
2018-06-03T13:30:29.568Z,26.10
2018-06-03T13:32:06.554Z,26.00
2018-06-03T13:33:44.071Z,26.00
2018-06-03T13:35:21.298Z,26.00
2018-06-03T13:36:59.199Z,25.40
2018-06-03T13:38:37.181Z,25.30
2018-06-03T13:40:14.879Z,25.60
2018-06-03T13:41:52.064Z,25.50
2018-06-03T13:43:29.985Z,25.80
2018-06-03T13:45:09.206Z,26.20
2018-06-03T13:46:50.408Z,25.20
2018-06-03T13:48:26.943Z,25.60
2018-06-03T13:50:03.555Z,25.30
2018-06-03T13:51:40.810Z,24.90
2018-06-03T13:53:17.528Z,25.00
2018-06-03T13:54:56.238Z,25.50
2018-06-03T13:56:32.893Z,25.80
2018-06-03T13:58:09.784Z,25.60
2018-06-03T13:59:47.279Z,25.70
2018-06-03T14:01:23.986Z,25.80
2018-06-03T14:03:00.520Z,25.90
2018-06-03T14:04:37.476Z,25.90
2018-06-03T14:06:14.098Z,25.70
2018-06-03T14:07:50.573Z,25.30
2018-06-03T14:09:27.237Z,24.90
2018-06-03T14:11:04.315Z,24.80
2018-06-03T14:12:40.750Z,24.90
2018-06-03T14:14:17.824Z,25.40
2018-06-03T14:15:55.029Z,25.70
2018-06-03T14:17:32.517Z,26.00
2018-06-03T14:19:09.840Z,26.00
2018-06-03T14:20:49.145Z,25.90
2018-06-03T14:22:26.486Z,26.10
2018-06-03T14:24:03.452Z,25.80
2018-06-03T14:25:41.436Z,25.40
2018-06-03T14:27:17.965Z,25.80
2018-06-03T14:28:54.607Z,26.00
2018-06-03T14:30:31.885Z,26.10
2018-06-03T14:32:08.487Z,26.00
2018-06-03T14:33:45.628Z,26.00
2018-06-03T14:35:22.371Z,26.00
2018-06-03T14:36:59.736Z,26.00
2018-06-03T14:38:36.311Z,25.90
2018-06-03T14:40:12.855Z,26.00
2018-06-03T14:41:49.441Z,25.90
2018-06-03T14:43:26.532Z,26.20
2018-06-03T14:45:04.962Z,26.20
2018-06-03T14:46:41.700Z,26.30
2018-06-03T14:48:20.337Z,26.20
2018-06-03T14:50:00.852Z,26.20
2018-06-03T14:51:37.392Z,26.20
2018-06-03T14:53:14.324Z,26.20
2018-06-03T14:54:50.990Z,26.30
2018-06-03T14:56:28.070Z,26.10
2018-06-03T14:58:05.344Z,26.00
2018-06-03T14:59:41.773Z,25.70
2018-06-03T15:01:19.195Z,26.00
2018-06-03T15:03:00.046Z,26.10
2018-06-03T15:04:46.828Z,26.10
2018-06-03T15:06:28.865Z,26.20
2018-06-03T15:08:07.066Z,26.10
2018-06-03T15:09:44.436Z,26.40
2018-06-03T15:11:20.798Z,26.40
2018-06-03T15:13:05.243Z,26.00
2018-06-03T15:16:19.630Z,26.00
2018-06-03T15:19:33.786Z,25.70
2018-06-03T15:21:12.211Z,26.00
2018-06-03T15:22:50.073Z,26.40
2018-06-03T15:24:26.823Z,26.40
2018-06-03T15:26:04.321Z,25.80
2018-06-03T15:27:40.819Z,25.30
2018-06-03T15:29:18.912Z,25.60
2018-06-03T15:32:32.206Z,25.80
2018-06-03T15:34:09.254Z,25.80
2018-06-03T15:35:46.359Z,26.10
2018-06-03T15:37:22.816Z,26.20
2018-06-03T15:38:59.276Z,26.30
2018-06-03T15:40:38.471Z,26.40
2018-06-03T15:42:15.573Z,26.40
2018-06-03T15:43:52.000Z,26.50
2018-06-03T15:45:29.201Z,26.40
2018-06-03T15:47:05.921Z,26.30
2018-06-03T15:48:43.262Z,26.20
2018-06-03T15:50:19.790Z,25.50
2018-06-03T15:51:56.344Z,25.00
2018-06-03T15:53:33.763Z,25.00
2018-06-03T15:55:10.254Z,25.40
2018-06-03T15:56:47.445Z,25.50
2018-06-03T15:58:24.088Z,25.10
2018-06-03T16:00:01.777Z,25.30
2018-06-03T16:01:38.736Z,25.40
2018-06-03T16:03:15.315Z,25.50
2018-06-03T16:04:51.842Z,25.40
2018-06-03T16:06:28.947Z,25.60
2018-06-03T16:08:06.121Z,25.00
2018-06-03T16:09:43.363Z,24.80
2018-06-03T16:11:19.783Z,25.20
2018-06-03T16:12:56.250Z,25.60
2018-06-03T16:14:32.745Z,25.50
2018-06-03T16:16:09.257Z,25.70
2018-06-03T16:17:50.445Z,25.00
2018-06-03T16:19:35.425Z,24.70
2018-06-03T16:21:15.405Z,25.10
2018-06-03T16:22:51.984Z,25.00
2018-06-03T16:24:28.631Z,24.80
2018-06-03T16:26:10.101Z,24.70
2018-06-03T16:27:49.567Z,25.10
2018-06-03T16:29:25.959Z,24.80
2018-06-03T16:31:02.556Z,24.70
2018-06-03T16:32:39.558Z,24.80
2018-06-03T16:34:15.968Z,24.80
2018-06-03T16:35:54.916Z,24.70
2018-06-03T16:37:31.804Z,24.70
2018-06-03T16:39:10.573Z,25.10
2018-06-03T16:40:48.035Z,25.60
2018-06-03T16:42:25.694Z,25.50
2018-06-03T16:44:02.147Z,25.40
2018-06-03T16:45:39.174Z,25.20
2018-06-03T16:47:15.656Z,25.10
2018-06-03T16:48:52.205Z,24.90
2018-06-03T16:50:28.862Z,24.80
2018-06-03T16:52:05.911Z,24.80
2018-06-03T16:53:43.229Z,25.10
2018-06-03T16:55:19.551Z,25.00
2018-06-03T16:58:33.583Z,25.10
2018-06-03T17:00:11.266Z,25.40
2018-06-03T17:01:48.923Z,25.30
2018-06-03T17:03:25.552Z,25.70
2018-06-03T17:05:02.178Z,25.80
2018-06-03T17:06:38.653Z,25.90
2018-06-03T17:08:15.121Z,26.10
2018-06-03T17:09:51.621Z,25.80
2018-06-03T17:11:28.602Z,25.20
2018-06-03T17:13:04.963Z,25.00
2018-06-03T17:14:41.483Z,24.90
2018-06-03T17:16:18.194Z,25.30
2018-06-03T17:17:55.946Z,25.20
2018-06-03T17:19:34.563Z,25.40
2018-06-03T17:21:10.994Z,25.40
2018-06-03T17:22:47.375Z,25.20
2018-06-03T17:24:24.268Z,25.40
2018-06-03T17:26:00.614Z,25.50
2018-06-03T17:27:37.093Z,25.30
2018-06-03T17:29:14.164Z,25.10
2018-06-03T17:30:51.777Z,25.40
2018-06-03T17:32:29.758Z,25.50
2018-06-03T17:34:06.602Z,25.70
2018-06-03T17:35:43.132Z,25.70
2018-06-03T17:37:20.022Z,25.70
2018-06-03T17:38:56.357Z,25.40
2018-06-03T17:40:33.105Z,25.10
2018-06-03T17:42:09.520Z,25.30
2018-06-03T17:43:46.554Z,25.60
2018-06-03T17:45:23.283Z,25.60
2018-06-03T17:46:59.610Z,25.50
2018-06-03T17:48:36.013Z,25.40
2018-06-03T17:50:12.656Z,25.00
2018-06-03T17:51:49.012Z,25.00
2018-06-03T17:53:25.527Z,25.10
2018-06-03T17:55:01.992Z,25.10
2018-06-03T17:56:42.985Z,25.50
2018-06-03T17:58:19.365Z,25.80
2018-06-03T17:59:55.744Z,25.80
2018-06-03T18:01:36.566Z,25.80
2018-06-03T18:03:13.424Z,25.80
2018-06-03T18:04:49.892Z,25.60
2018-06-03T18:06:27.035Z,25.10
2018-06-03T18:08:03.363Z,24.70
2018-06-03T18:09:41.078Z,24.50
2018-06-03T18:11:17.456Z,24.30
2018-06-03T18:12:54.518Z,24.30
2018-06-03T18:14:31.567Z,24.70
2018-06-03T18:16:09.040Z,24.40
2018-06-03T18:17:45.499Z,24.50
2018-06-03T18:19:21.795Z,24.30
2018-06-03T18:20:58.974Z,24.20
2018-06-03T18:22:36.824Z,24.30
2018-06-03T18:24:13.414Z,24.70
2018-06-03T18:26:07.817Z,24.60
2018-06-03T18:29:51.828Z,24.50
2018-06-03T18:31:43.074Z,24.90
2018-06-03T18:33:20.870Z,25.30
2018-06-03T18:34:57.336Z,25.50
2018-06-03T18:36:34.077Z,25.20
2018-06-03T18:38:10.573Z,25.10
2018-06-03T18:39:47.973Z,25.20
2018-06-03T18:41:24.369Z,25.40
2018-06-03T18:43:00.736Z,25.00
2018-06-03T18:44:37.188Z,25.00
2018-06-03T18:46:14.233Z,25.30
2018-06-03T18:47:50.759Z,25.40
2018-06-03T18:49:27.204Z,25.20
2018-06-03T18:51:03.714Z,24.90
2018-06-03T18:52:45.339Z,24.70
2018-06-03T18:54:31.955Z,24.50
2018-06-03T18:56:08.682Z,24.50
2018-06-03T18:57:45.986Z,24.60
2018-06-03T18:59:22.496Z,24.60
2018-06-03T19:00:59.235Z,24.40
2018-06-03T19:02:35.661Z,24.20
2018-06-03T19:04:12.081Z,24.10
2018-06-03T19:05:48.616Z,24.00
2018-06-03T19:07:25.107Z,24.00
2018-06-03T19:09:01.789Z,24.20
2018-06-03T19:10:38.706Z,24.60
2018-06-03T19:12:15.118Z,24.60
2018-06-03T19:13:51.967Z,24.60
2018-06-03T19:15:28.940Z,24.40
2018-06-03T19:17:06.005Z,24.60
2018-06-03T19:18:42.555Z,24.30
2018-06-03T19:20:20.298Z,24.10
2018-06-03T19:21:56.716Z,24.00
2018-06-03T19:23:33.517Z,23.90
2018-06-03T19:25:16.279Z,23.90
2018-06-03T19:30:09.646Z,24.10
2018-06-03T19:31:48.022Z,24.20
2018-06-03T19:33:27.496Z,24.60
2018-06-03T19:35:10.332Z,24.50
2018-06-03T19:36:48.719Z,24.50
2018-06-03T19:38:25.193Z,24.90
2018-06-03T19:40:01.631Z,24.90
2018-06-03T19:41:38.573Z,25.00
2018-06-03T19:43:15.501Z,25.30
2018-06-03T19:44:55.020Z,25.60
2018-06-03T19:48:10.403Z,24.90
2018-06-03T19:49:47.782Z,24.80
2018-06-03T19:51:24.291Z,24.90
2018-06-03T19:53:00.976Z,25.00
2018-06-03T19:54:39.283Z,25.30
2018-06-03T19:56:15.991Z,25.30
2018-06-03T19:57:52.546Z,25.30
2018-06-03T19:59:32.107Z,25.40
2018-06-03T20:01:10.671Z,25.40
2018-06-03T20:02:47.346Z,25.40
2018-06-03T20:04:23.996Z,25.30
2018-06-03T20:06:40.388Z,25.20
2018-06-03T20:08:17.469Z,25.30
2018-06-03T20:09:55.480Z,25.20
2018-06-03T20:11:32.141Z,24.90
2018-06-03T20:13:10.923Z,24.80
2018-06-03T20:14:53.158Z,24.90
2018-06-03T20:16:33.416Z,25.10
2018-06-03T20:18:18.168Z,25.10
2018-06-03T20:19:57.456Z,25.10
2018-06-03T20:21:38.646Z,25.00
2018-06-03T20:23:16.792Z,25.00
2018-06-03T20:24:55.592Z,25.00
2018-06-03T20:26:32.548Z,24.90
2018-06-03T20:28:10.949Z,24.80
2018-06-03T20:29:59.419Z,24.90
2018-06-03T20:31:44.602Z,24.80
2018-06-03T20:33:24.350Z,24.60
2018-06-03T20:35:06.174Z,24.40
2018-06-03T20:36:45.572Z,24.20
2018-06-03T20:38:22.188Z,24.00
2018-06-03T20:40:02.488Z,24.00
2018-06-03T20:41:40.683Z,23.90
2018-06-03T20:43:17.626Z,23.90
2018-06-03T20:44:56.376Z,23.80
2018-06-03T20:46:37.631Z,24.00
2018-06-03T20:48:20.173Z,24.20
2018-06-03T20:49:58.152Z,24.60
2018-06-03T20:51:35.652Z,24.70
2018-06-03T20:53:15.090Z,24.60
2018-06-03T20:54:56.089Z,24.30
2018-06-03T20:56:39.651Z,24.00
2018-06-03T21:00:01.985Z,23.90
2018-06-03T21:01:41.656Z,23.50
2018-06-03T21:03:19.806Z,23.50
2018-06-03T21:04:56.112Z,23.60
2018-06-03T21:06:33.185Z,23.90
2018-06-03T21:08:09.827Z,23.70
2018-06-03T21:09:47.494Z,23.30
2018-06-03T21:11:23.838Z,23.20
2018-06-03T21:13:00.221Z,23.20
2018-06-03T21:14:37.688Z,23.20
2018-06-03T21:16:15.960Z,23.10
2018-06-03T21:17:52.437Z,23.00
2018-06-03T21:19:29.332Z,23.10
2018-06-03T21:21:07.113Z,23.40
2018-06-03T21:22:44.528Z,23.60
2018-06-03T21:24:20.907Z,23.70
2018-06-03T21:25:57.398Z,23.70
2018-06-03T21:27:34.438Z,23.70
2018-06-03T21:29:10.840Z,23.60
2018-06-03T21:30:47.519Z,23.60
2018-06-03T21:32:23.943Z,23.50
2018-06-03T21:34:01.735Z,23.70
2018-06-03T21:35:38.075Z,23.60
2018-06-03T21:37:14.468Z,23.60
2018-06-03T21:38:50.992Z,23.40
2018-06-03T21:40:29.144Z,23.20
2018-06-03T21:42:30.079Z,23.10
2018-06-03T21:44:06.574Z,22.80
2018-06-03T21:45:43.617Z,22.60
2018-06-03T21:47:20.406Z,22.50
2018-06-03T21:48:58.272Z,22.50
2018-06-03T21:50:34.675Z,22.60
2018-06-03T21:52:11.695Z,23.00
2018-06-03T21:53:48.457Z,22.70
2018-06-03T21:55:26.023Z,22.50
2018-06-03T21:57:02.882Z,22.40
2018-06-03T21:58:39.398Z,22.50
2018-06-03T22:00:19.351Z,22.70
2018-06-03T22:01:56.850Z,22.90
2018-06-03T22:03:33.811Z,22.60